sensor_id;sensor_type;location;lat;lon;timestamp;P1;durP1;ratioP1;P2;durP2;ratioP2
16760;SDS011;8498;52.516;13.790;2023-03-23T00:00:52;2.97;;;2.37;;
16760;SDS011;8498;52.516;13.790;2023-03-23T00:06:15;4.43;;;2.63;;
16760;SDS011;8498;52.516;13.790;2023-03-23T00:11:40;2.40;;;2.20;;
16760;SDS011;8498;52.516;13.790;2023-03-23T00:17:03;2.87;;;2.10;;
16760;SDS011;8498;52.516;13.790;2023-03-23T00:22:24;2.63;;;2.43;;
16760;SDS011;8498;52.516;13.790;2023-03-23T00:27:46;3.90;;;2.40;;
16760;SDS011;8498;52.516;13.790;2023-03-23T00:33:07;8.60;;;2.53;;
16760;SDS011;8498;52.516;13.790;2023-03-23T00:38:29;2.60;;;2.40;;
16760;SDS011;8498;52.516;13.790;2023-03-23T00:43:51;3.27;;;2.47;;
16760;SDS011;8498;52.516;13.790;2023-03-23T00:49:13;2.93;;;2.73;;
16760;SDS011;8498;52.516;13.790;2023-03-23T00:54:36;2.47;;;2.27;;
16760;SDS011;8498;52.516;13.790;2023-03-23T00:59:58;3.10;;;2.40;;
16760;SDS011;8498;52.516;13.790;2023-03-23T01:05:20;5.57;;;3.00;;
16760;SDS011;8498;52.516;13.790;2023-03-23T01:10:41;2.83;;;2.27;;
16760;SDS011;8498;52.516;13.790;2023-03-23T01:16:04;2.50;;;2.30;;
16760;SDS011;8498;52.516;13.790;2023-03-23T01:21:26;2.63;;;2.43;;
16760;SDS011;8498;52.516;13.790;2023-03-23T01:26:47;2.43;;;2.23;;
16760;SDS011;8498;52.516;13.790;2023-03-23T01:32:09;5.27;;;2.50;;
16760;SDS011;8498;52.516;13.790;2023-03-23T01:37:30;4.50;;;2.70;;
16760;SDS011;8498;52.516;13.790;2023-03-23T01:42:52;3.23;;;2.90;;
16760;SDS011;8498;52.516;13.790;2023-03-23T01:48:18;2.87;;;2.33;;
16760;SDS011;8498;52.516;13.790;2023-03-23T01:53:51;2.63;;;2.43;;
16760;SDS011;8498;52.516;13.790;2023-03-23T01:59:17;3.67;;;2.40;;
16760;SDS011;8498;52.516;13.790;2023-03-23T02:04:47;2.53;;;2.30;;
16760;SDS011;8498;52.516;13.790;2023-03-23T02:10:08;2.20;;;2.00;;
16760;SDS011;8498;52.516;13.790;2023-03-23T02:15:45;2.77;;;2.57;;
16760;SDS011;8498;52.516;13.790;2023-03-23T02:33:12;3.30;;;2.47;;
16760;SDS011;8498;52.516;13.790;2023-03-23T02:38:49;2.77;;;2.57;;
16760;SDS011;8498;52.516;13.790;2023-03-23T02:44:16;2.30;;;2.10;;
16760;SDS011;8498;52.516;13.790;2023-03-23T02:49:39;3.93;;;2.37;;
16760;SDS011;8498;52.516;13.790;2023-03-23T02:55:03;2.63;;;2.43;;
16760;SDS011;8498;52.516;13.790;2023-03-23T03:00:25;6.90;;;2.50;;
16760;SDS011;8498;52.516;13.790;2023-03-23T03:05:51;2.10;;;1.97;;
16760;SDS011;8498;52.516;13.790;2023-03-23T03:11:26;2.93;;;2.10;;
16760;SDS011;8498;52.516;13.790;2023-03-23T03:16:57;2.20;;;2.00;;
16760;SDS011;8498;52.516;13.790;2023-03-23T03:22:26;2.37;;;2.17;;
16760;SDS011;8498;52.516;13.790;2023-03-23T03:27:51;2.60;;;2.00;;
16760;SDS011;8498;52.516;13.790;2023-03-23T03:33:26;3.20;;;2.10;;
16760;SDS011;8498;52.516;13.790;2023-03-23T03:38:52;2.80;;;2.30;;
16760;SDS011;8498;52.516;13.790;2023-03-23T03:44:15;2.00;;;1.90;;
16760;SDS011;8498;52.516;13.790;2023-03-23T03:49:36;3.00;;;2.13;;
16760;SDS011;8498;52.516;13.790;2023-03-23T03:54:58;1.90;;;1.80;;
16760;SDS011;8498;52.516;13.790;2023-03-23T04:00:20;2.30;;;2.10;;
16760;SDS011;8498;52.516;13.790;2023-03-23T04:05:44;4.97;;;2.10;;
16760;SDS011;8498;52.516;13.790;2023-03-23T04:11:07;3.53;;;2.10;;
16760;SDS011;8498;52.516;13.790;2023-03-23T04:16:29;1.70;;;1.60;;
16760;SDS011;8498;52.516;13.790;2023-03-23T04:21:52;1.70;;;1.60;;
16760;SDS011;8498;52.516;13.790;2023-03-23T04:27:13;3.07;;;2.20;;
16760;SDS011;8498;52.516;13.790;2023-03-23T04:32:36;2.90;;;1.83;;
16760;SDS011;8498;52.516;13.790;2023-03-23T04:38:02;2.40;;;2.03;;
16760;SDS011;8498;52.516;13.790;2023-03-23T04:43:24;1.80;;;1.70;;
16760;SDS011;8498;52.516;13.790;2023-03-23T04:49:08;2.13;;;1.73;;
16760;SDS011;8498;52.516;13.790;2023-03-23T04:54:33;1.83;;;1.73;;
16760;SDS011;8498;52.516;13.790;2023-03-23T04:59:55;1.60;;;1.50;;
16760;SDS011;8498;52.516;13.790;2023-03-23T05:05:30;2.67;;;1.90;;
16760;SDS011;8498;52.516;13.790;2023-03-23T05:10:58;3.93;;;2.17;;
16760;SDS011;8498;52.516;13.790;2023-03-23T05:16:26;2.30;;;1.70;;
16760;SDS011;8498;52.516;13.790;2023-03-23T05:21:50;2.50;;;1.80;;
16760;SDS011;8498;52.516;13.790;2023-03-23T05:27:12;1.90;;;1.80;;
16760;SDS011;8498;52.516;13.790;2023-03-23T05:32:40;1.90;;;1.80;;
16760;SDS011;8498;52.516;13.790;2023-03-23T05:38:19;3.23;;;2.20;;
16760;SDS011;8498;52.516;13.790;2023-03-23T05:43:41;2.67;;;2.47;;
16760;SDS011;8498;52.516;13.790;2023-03-23T05:49:03;2.50;;;2.20;;
16760;SDS011;8498;52.516;13.790;2023-03-23T05:54:31;2.50;;;2.17;;
16760;SDS011;8498;52.516;13.790;2023-03-23T05:59:52;2.30;;;2.20;;
16760;SDS011;8498;52.516;13.790;2023-03-23T06:05:17;2.50;;;2.17;;
16760;SDS011;8498;52.516;13.790;2023-03-23T06:10:45;2.50;;;1.80;;
16760;SDS011;8498;52.516;13.790;2023-03-23T06:16:08;3.87;;;2.40;;
16760;SDS011;8498;52.516;13.790;2023-03-23T06:21:42;2.50;;;2.30;;
16760;SDS011;8498;52.516;13.790;2023-03-23T06:27:27;2.53;;;2.03;;
16760;SDS011;8498;52.516;13.790;2023-03-23T06:32:49;4.37;;;2.10;;
16760;SDS011;8498;52.516;13.790;2023-03-23T06:38:20;2.73;;;2.13;;
16760;SDS011;8498;52.516;13.790;2023-03-23T06:43:45;5.03;;;2.47;;
16760;SDS011;8498;52.516;13.790;2023-03-23T06:49:09;5.23;;;3.20;;
16760;SDS011;8498;52.516;13.790;2023-03-23T06:54:41;6.07;;;3.63;;
16760;SDS011;8498;52.516;13.790;2023-03-23T07:00:03;4.90;;;2.07;;
16760;SDS011;8498;52.516;13.790;2023-03-23T07:05:37;7.97;;;2.50;;
16760;SDS011;8498;52.516;13.790;2023-03-23T07:10:59;5.07;;;2.17;;
16760;SDS011;8498;52.516;13.790;2023-03-23T07:16:23;2.27;;;2.07;;
16760;SDS011;8498;52.516;13.790;2023-03-23T07:21:46;4.63;;;1.90;;
16760;SDS011;8498;52.516;13.790;2023-03-23T07:27:08;3.97;;;2.27;;
16760;SDS011;8498;52.516;13.790;2023-03-23T07:32:31;2.13;;;2.03;;
16760;SDS011;8498;52.516;13.790;2023-03-23T07:37:53;4.60;;;2.30;;
16760;SDS011;8498;52.516;13.790;2023-03-23T07:43:15;3.03;;;2.33;;
16760;SDS011;8498;52.516;13.790;2023-03-23T07:48:54;3.60;;;2.80;;
16760;SDS011;8498;52.516;13.790;2023-03-23T07:54:21;3.40;;;2.70;;
16760;SDS011;8498;52.516;13.790;2023-03-23T07:59:43;10.83;;;2.67;;
16760;SDS011;8498;52.516;13.790;2023-03-23T08:05:06;4.77;;;2.30;;
16760;SDS011;8498;52.516;13.790;2023-03-23T08:10:27;3.00;;;2.30;;
16760;SDS011;8498;52.516;13.790;2023-03-23T08:16:05;4.50;;;2.30;;
16760;SDS011;8498;52.516;13.790;2023-03-23T08:21:43;2.80;;;2.43;;
16760;SDS011;8498;52.516;13.790;2023-03-23T08:27:23;4.70;;;2.33;;
16760;SDS011;8498;52.516;13.790;2023-03-23T08:33:14;3.67;;;2.30;;
16760;SDS011;8498;52.516;13.790;2023-03-23T08:38:58;3.67;;;2.53;;
16760;SDS011;8498;52.516;13.790;2023-03-23T08:44:58;3.60;;;2.00;;
16760;SDS011;8498;52.516;13.790;2023-03-23T08:50:40;6.63;;;2.13;;
16760;SDS011;8498;52.516;13.790;2023-03-23T08:56:11;2.20;;;2.00;;
16760;SDS011;8498;52.516;13.790;2023-03-23T09:01:56;6.20;;;2.30;;
16760;SDS011;8498;52.516;13.790;2023-03-23T09:07:27;3.07;;;2.37;;
16760;SDS011;8498;52.516;13.790;2023-03-23T09:12:49;2.37;;;2.07;;
16760;SDS011;8498;52.516;13.790;2023-03-23T09:18:10;2.60;;;2.27;;
16760;SDS011;8498;52.516;13.790;2023-03-23T09:23:33;2.57;;;2.37;;
16760;SDS011;8498;52.516;13.790;2023-03-23T09:28:55;2.33;;;2.13;;
16760;SDS011;8498;52.516;13.790;2023-03-23T09:34:17;2.80;;;2.10;;
16760;SDS011;8498;52.516;13.790;2023-03-23T09:39:41;3.27;;;2.00;;
16760;SDS011;8498;52.516;13.790;2023-03-23T09:50:31;3.73;;;2.27;;
16760;SDS011;8498;52.516;13.790;2023-03-23T09:55:55;2.77;;;2.07;;
16760;SDS011;8498;52.516;13.790;2023-03-23T10:01:26;2.07;;;1.97;;
16760;SDS011;8498;52.516;13.790;2023-03-23T10:06:57;3.67;;;2.10;;
16760;SDS011;8498;52.516;13.790;2023-03-23T10:18:24;2.87;;;1.87;;
16760;SDS011;8498;52.516;13.790;2023-03-23T10:34:42;1.60;;;1.50;;
16760;SDS011;8498;52.516;13.790;2023-03-23T10:40:19;3.40;;;1.50;;
16760;SDS011;8498;52.516;13.790;2023-03-23T10:45:45;1.57;;;1.47;;
16760;SDS011;8498;52.516;13.790;2023-03-23T10:51:16;3.90;;;1.50;;
16760;SDS011;8498;52.516;13.790;2023-03-23T10:56:42;1.57;;;1.40;;
16760;SDS011;8498;52.516;13.790;2023-03-23T11:02:12;4.23;;;1.60;;
16760;SDS011;8498;52.516;13.790;2023-03-23T11:07:37;1.60;;;1.17;;
16760;SDS011;8498;52.516;13.790;2023-03-23T11:12:59;1.30;;;1.20;;
16760;SDS011;8498;52.516;13.790;2023-03-23T11:23:52;2.77;;;1.50;;
16760;SDS011;8498;52.516;13.790;2023-03-23T11:29:21;1.60;;;1.23;;
16760;SDS011;8498;52.516;13.790;2023-03-23T11:34:46;2.80;;;1.50;;
16760;SDS011;8498;52.516;13.790;2023-03-23T11:51:00;1.40;;;1.30;;
16760;SDS011;8498;52.516;13.790;2023-03-23T11:56:36;2.57;;;1.47;;
16760;SDS011;8498;52.516;13.790;2023-03-23T12:30:55;1.90;;;1.47;;
16760;SDS011;8498;52.516;13.790;2023-03-23T12:36:11;2.20;;;1.37;;
16760;SDS011;8498;52.516;13.790;2023-03-23T12:41:49;1.38;;;1.27;;
16760;SDS011;8498;52.516;13.790;2023-03-23T12:47:24;2.15;;;1.42;;
16760;SDS011;8498;52.516;13.790;2023-03-23T12:53:05;2.67;;;1.30;;
16760;SDS011;8498;52.516;13.790;2023-03-23T12:58:34;1.45;;;1.33;;
16760;SDS011;8498;52.516;13.790;2023-03-23T13:04:11;4.43;;;1.83;;
16760;SDS011;8498;52.516;13.790;2023-03-23T13:26:26;1.55;;;1.45;;
16760;SDS011;8498;52.516;13.790;2023-03-23T13:31:48;2.67;;;1.58;;
16760;SDS011;8498;52.516;13.790;2023-03-23T13:37:12;3.03;;;1.52;;
16760;SDS011;8498;52.516;13.790;2023-03-23T13:42:49;4.60;;;1.73;;
16760;SDS011;8498;52.516;13.790;2023-03-23T13:53:45;1.63;;;1.50;;
16760;SDS011;8498;52.516;13.790;2023-03-23T14:04:35;2.08;;;1.48;;
16760;SDS011;8498;52.516;13.790;2023-03-23T14:10:04;3.60;;;1.52;;
16760;SDS011;8498;52.516;13.790;2023-03-23T14:15:29;2.13;;;1.92;;
16760;SDS011;8498;52.516;13.790;2023-03-23T14:20:51;2.45;;;1.20;;
16760;SDS011;8498;52.516;13.790;2023-03-23T14:26:17;2.38;;;1.40;;
16760;SDS011;8498;52.516;13.790;2023-03-23T14:31:41;2.80;;;1.55;;
16760;SDS011;8498;52.516;13.790;2023-03-23T14:37:02;2.03;;;1.35;;
16760;SDS011;8498;52.516;13.790;2023-03-23T14:42:27;4.07;;;1.40;;
16760;SDS011;8498;52.516;13.790;2023-03-23T14:47:55;1.42;;;0.95;;
16760;SDS011;8498;52.516;13.790;2023-03-23T14:53:23;2.38;;;1.23;;
16760;SDS011;8498;52.516;13.790;2023-03-23T14:58:45;4.60;;;1.40;;
16760;SDS011;8498;52.516;13.790;2023-03-23T15:04:25;2.13;;;1.30;;
16760;SDS011;8498;52.516;13.790;2023-03-23T15:09:47;1.83;;;1.25;;
16760;SDS011;8498;52.516;13.790;2023-03-23T15:15:18;2.70;;;1.35;;
16760;SDS011;8498;52.516;13.790;2023-03-23T15:20:46;2.63;;;1.75;;
16760;SDS011;8498;52.516;13.790;2023-03-23T15:26:22;4.03;;;1.87;;
16760;SDS011;8498;52.516;13.790;2023-03-23T15:31:50;3.17;;;2.20;;
16760;SDS011;8498;52.516;13.790;2023-03-23T15:37:25;2.43;;;2.03;;
16760;SDS011;8498;52.516;13.790;2023-03-23T15:48:49;4.83;;;2.40;;
16760;SDS011;8498;52.516;13.790;2023-03-23T15:54:16;2.30;;;1.87;;
16760;SDS011;8498;52.516;13.790;2023-03-23T15:59:41;2.87;;;2.13;;
16760;SDS011;8498;52.516;13.790;2023-03-23T16:05:05;1.80;;;1.53;;
16760;SDS011;8498;52.516;13.790;2023-03-23T16:10:28;2.90;;;1.93;;
16760;SDS011;8498;52.516;13.790;2023-03-23T16:15:50;3.20;;;1.77;;
16760;SDS011;8498;52.516;13.790;2023-03-23T16:21:13;1.63;;;1.40;;
16760;SDS011;8498;52.516;13.790;2023-03-23T16:26:38;2.17;;;1.20;;
16760;SDS011;8498;52.516;13.790;2023-03-23T16:32:02;4.77;;;1.40;;
16760;SDS011;8498;52.516;13.790;2023-03-23T16:37:24;1.30;;;1.20;;
16760;SDS011;8498;52.516;13.790;2023-03-23T16:42:54;2.00;;;1.50;;
16760;SDS011;8498;52.516;13.790;2023-03-23T16:48:20;5.70;;;1.70;;
16760;SDS011;8498;52.516;13.790;2023-03-23T16:53:43;1.23;;;1.13;;
16760;SDS011;8498;52.516;13.790;2023-03-23T16:59:05;1.60;;;1.50;;
16760;SDS011;8498;52.516;13.790;2023-03-23T17:04:28;1.87;;;1.03;;
16760;SDS011;8498;52.516;13.790;2023-03-23T17:09:53;3.37;;;0.93;;
16760;SDS011;8498;52.516;13.790;2023-03-23T17:15:15;2.67;;;1.33;;
16760;SDS011;8498;52.516;13.790;2023-03-23T17:20:38;3.77;;;1.27;;
16760;SDS011;8498;52.516;13.790;2023-03-23T17:26:01;5.70;;;1.40;;
16760;SDS011;8498;52.516;13.790;2023-03-23T17:31:25;2.23;;;1.30;;
16760;SDS011;8498;52.516;13.790;2023-03-23T17:36:47;4.87;;;2.07;;
16760;SDS011;8498;52.516;13.790;2023-03-23T17:42:10;3.50;;;1.70;;
16760;SDS011;8498;52.516;13.790;2023-03-23T17:47:33;6.17;;;2.27;;
16760;SDS011;8498;52.516;13.790;2023-03-23T17:52:56;2.70;;;1.83;;
16760;SDS011;8498;52.516;13.790;2023-03-23T17:58:18;2.90;;;2.03;;
16760;SDS011;8498;52.516;13.790;2023-03-23T18:03:41;8.43;;;2.30;;
16760;SDS011;8498;52.516;13.790;2023-03-23T18:09:06;3.03;;;1.90;;
16760;SDS011;8498;52.516;13.790;2023-03-23T18:14:29;3.83;;;1.53;;
16760;SDS011;8498;52.516;13.790;2023-03-23T18:19:51;2.67;;;1.37;;
16760;SDS011;8498;52.516;13.790;2023-03-23T18:25:14;4.70;;;1.70;;
16760;SDS011;8498;52.516;13.790;2023-03-23T18:30:37;3.43;;;2.03;;
16760;SDS011;8498;52.516;13.790;2023-03-23T18:36:00;2.50;;;2.30;;
16760;SDS011;8498;52.516;13.790;2023-03-23T18:41:23;3.30;;;2.20;;
16760;SDS011;8498;52.516;13.790;2023-03-23T18:46:46;2.63;;;2.00;;
16760;SDS011;8498;52.516;13.790;2023-03-23T18:52:09;4.50;;;2.10;;
16760;SDS011;8498;52.516;13.790;2023-03-23T18:57:31;6.60;;;2.40;;
16760;SDS011;8498;52.516;13.790;2023-03-23T19:02:54;5.77;;;2.00;;
16760;SDS011;8498;52.516;13.790;2023-03-23T19:08:16;7.77;;;2.60;;
16760;SDS011;8498;52.516;13.790;2023-03-23T19:13:39;8.27;;;5.17;;
16760;SDS011;8498;52.516;13.790;2023-03-23T19:19:22;5.27;;;3.50;;
16760;SDS011;8498;52.516;13.790;2023-03-23T19:24:46;6.07;;;2.47;;
16760;SDS011;8498;52.516;13.790;2023-03-23T19:30:08;4.87;;;2.87;;
16760;SDS011;8498;52.516;13.790;2023-03-23T19:35:31;5.37;;;3.00;;
16760;SDS011;8498;52.516;13.790;2023-03-23T19:40:54;6.43;;;2.90;;
16760;SDS011;8498;52.516;13.790;2023-03-23T19:46:26;7.27;;;3.50;;
16760;SDS011;8498;52.516;13.790;2023-03-23T19:51:52;3.67;;;3.37;;
16760;SDS011;8498;52.516;13.790;2023-03-23T19:57:31;5.73;;;4.00;;
16760;SDS011;8498;52.516;13.790;2023-03-23T20:02:54;12.53;;;3.83;;
16760;SDS011;8498;52.516;13.790;2023-03-23T20:08:17;6.47;;;3.60;;
16760;SDS011;8498;52.516;13.790;2023-03-23T20:13:40;3.93;;;2.97;;
16760;SDS011;8498;52.516;13.790;2023-03-23T20:19:02;6.27;;;3.03;;
16760;SDS011;8498;52.516;13.790;2023-03-23T20:24:26;5.23;;;3.00;;
16760;SDS011;8498;52.516;13.790;2023-03-23T20:29:49;5.90;;;2.90;;
16760;SDS011;8498;52.516;13.790;2023-03-23T20:35:15;15.87;;;3.67;;
16760;SDS011;8498;52.516;13.790;2023-03-23T20:40:38;7.83;;;3.10;;
16760;SDS011;8498;52.516;13.790;2023-03-23T20:46:00;4.67;;;2.50;;
16760;SDS011;8498;52.516;13.790;2023-03-23T20:51:24;4.03;;;2.90;;
16760;SDS011;8498;52.516;13.790;2023-03-23T20:56:47;7.77;;;3.13;;
16760;SDS011;8498;52.516;13.790;2023-03-23T21:02:11;7.20;;;3.57;;
16760;SDS011;8498;52.516;13.790;2023-03-23T21:07:36;5.10;;;2.63;;
16760;SDS011;8498;52.516;13.790;2023-03-23T21:13:00;2.53;;;2.33;;
16760;SDS011;8498;52.516;13.790;2023-03-23T21:18:23;5.83;;;2.90;;
16760;SDS011;8498;52.516;13.790;2023-03-23T21:23:45;5.43;;;2.93;;
16760;SDS011;8498;52.516;13.790;2023-03-23T21:29:13;7.30;;;3.30;;
16760;SDS011;8498;52.516;13.790;2023-03-23T21:34:36;2.83;;;2.60;;
16760;SDS011;8498;52.516;13.790;2023-03-23T21:39:59;5.67;;;3.30;;
16760;SDS011;8498;52.516;13.790;2023-03-23T21:45:22;7.07;;;3.13;;
16760;SDS011;8498;52.516;13.790;2023-03-23T21:50:46;7.67;;;5.37;;
16760;SDS011;8498;52.516;13.790;2023-03-23T21:56:10;7.67;;;3.10;;
16760;SDS011;8498;52.516;13.790;2023-03-23T22:01:33;4.10;;;2.80;;
16760;SDS011;8498;52.516;13.790;2023-03-23T22:06:58;5.93;;;2.90;;
16760;SDS011;8498;52.516;13.790;2023-03-23T22:12:20;4.50;;;3.10;;
16760;SDS011;8498;52.516;13.790;2023-03-23T22:17:43;6.13;;;3.37;;
16760;SDS011;8498;52.516;13.790;2023-03-23T22:23:06;4.20;;;2.93;;
16760;SDS011;8498;52.516;13.790;2023-03-23T22:28:29;4.43;;;2.77;;
16760;SDS011;8498;52.516;13.790;2023-03-23T22:33:53;3.17;;;2.63;;
16760;SDS011;8498;52.516;13.790;2023-03-23T22:39:16;4.23;;;2.20;;
16760;SDS011;8498;52.516;13.790;2023-03-23T22:44:39;5.67;;;3.00;;
16760;SDS011;8498;52.516;13.790;2023-03-23T22:50:04;6.97;;;2.73;;
16760;SDS011;8498;52.516;13.790;2023-03-23T22:55:28;6.63;;;2.90;;
16760;SDS011;8498;52.516;13.790;2023-03-23T23:00:55;4.10;;;2.70;;
16760;SDS011;8498;52.516;13.790;2023-03-23T23:06:27;3.17;;;2.80;;
16760;SDS011;8498;52.516;13.790;2023-03-23T23:11:49;3.63;;;2.50;;
16760;SDS011;8498;52.516;13.790;2023-03-23T23:17:12;2.70;;;2.50;;
16760;SDS011;8498;52.516;13.790;2023-03-23T23:22:35;4.60;;;2.47;;
16760;SDS011;8498;52.516;13.790;2023-03-23T23:27:57;2.73;;;2.27;;
16760;SDS011;8498;52.516;13.790;2023-03-23T23:33:22;2.97;;;2.07;;
16760;SDS011;8498;52.516;13.790;2023-03-23T23:38:44;8.27;;;2.63;;
16760;SDS011;8498;52.516;13.790;2023-03-23T23:44:06;2.73;;;2.53;;
16760;SDS011;8498;52.516;13.790;2023-03-23T23:49:29;4.27;;;2.57;;
16760;SDS011;8498;52.516;13.790;2023-03-23T23:54:55;2.63;;;2.37;;
